Etusivu
METAR-TAF:

METAR-TAF

Lentoasemat :

Kindersley, Saskatchewan, Kanada

Leveyspiiri: 51-31N, Pituuspiiri: 109-10W, korkeus merenpinnasta: 694 m

Tämänhetkinen sää

Tämä raportti tehtiin 37 minuuttia sitten, kello 11.00 UTC
Tuuli 6 kn etelästä/lounaasta, vaihdellen etelän ja lounaan välillä
Lämpötila -5°C
Kosteus 93%
Ilmanpaine 1010 hPa
Näkyvyys: 0.4 km
jäätävää sumua

METAR: CYKY 211100Z 21006KT 170V230 1/4SM FZFG VV002 M05/M06 A2983 RMK FG8 SLP135

Aika: 05:37 (11:37 UTC)


TAF: puuttuu

Säähavainnot ja -ennusteet yli 4000 lentoasemalta (METAR- ja TAF-raportit).

Käytössä olevat sääasemat on merkitty karttaan keltaisilla ja punaisilla pisteillä.

Aseta hiiri pisteen päälle nähdäksesi sääaseman nimen.

Klikkaa sitten nähdäksesi säähavainnot ja -ennusteet.

Kartan vaihtaminen: klikkaa mustalla rastilla varustettuja vihreitä pisteitä, niin voit zoomata sisään; viivalla varustettua vihreää pistettä, niin voit zoomata ulos tai vihreitä nuolia, niin pääset viereisille kartoille.


METAR-TAF: